createdAt,value
2018-02-13T00:00:09.398Z,91.14
2018-02-13T00:02:37.828Z,91.80
2018-02-13T00:05:06.184Z,92.39
2018-02-13T00:07:34.582Z,92.97
2018-02-13T00:10:02.965Z,93.38
2018-02-13T00:12:31.293Z,93.76
2018-02-13T00:14:59.717Z,94.04
2018-02-13T00:17:28.045Z,94.10
2018-02-13T00:19:56.470Z,93.86
2018-02-13T00:22:24.845Z,93.71
2018-02-13T00:24:53.198Z,93.57
2018-02-13T00:27:21.602Z,93.50
2018-02-13T00:29:49.978Z,93.37
2018-02-13T00:32:18.309Z,93.01
2018-02-13T00:34:46.733Z,93.14
2018-02-13T00:37:15.069Z,93.70
2018-02-13T00:39:43.416Z,93.95
2018-02-13T00:42:11.765Z,94.16
2018-02-13T00:44:40.117Z,94.42
2018-02-13T00:47:08.448Z,94.70
2018-02-13T00:49:36.929Z,94.75
2018-02-13T00:52:05.234Z,94.70
2018-02-13T00:54:33.657Z,94.60
2018-02-13T00:57:01.982Z,94.45
2018-02-13T00:59:30.405Z,94.30
2018-02-13T01:01:58.729Z,94.12
2018-02-13T01:04:27.157Z,93.85
2018-02-13T01:06:55.481Z,93.58
2018-02-13T01:09:23.825Z,93.42
2018-02-13T01:11:52.152Z,93.14
2018-02-13T01:14:20.501Z,93.09
2018-02-13T01:16:48.833Z,93.13
2018-02-13T01:19:17.221Z,92.91
2018-02-13T01:21:45.551Z,93.01
2018-02-13T01:24:13.901Z,93.11
2018-02-13T01:26:42.246Z,93.05
2018-02-13T01:29:10.601Z,92.95
2018-02-13T01:31:39.005Z,92.77
2018-02-13T01:34:07.353Z,92.74
2018-02-13T01:36:35.685Z,92.93
2018-02-13T01:39:04.037Z,92.92
2018-02-13T01:41:32.369Z,93.15
2018-02-13T01:44:00.725Z,93.29
2018-02-13T01:46:29.062Z,93.60
2018-02-13T01:48:57.414Z,93.82
2018-02-13T01:51:25.741Z,93.89
2018-02-13T01:53:54.190Z,93.87
2018-02-13T01:56:22.518Z,93.90
2018-02-13T01:58:50.838Z,93.90
2018-02-13T02:01:19.182Z,93.98
2018-02-13T02:03:47.505Z,94.03
2018-02-13T02:06:15.848Z,93.86
2018-02-13T02:08:44.206Z,93.75
2018-02-13T02:11:12.522Z,93.66
2018-02-13T02:13:40.858Z,93.56
2018-02-13T02:16:09.202Z,93.37
2018-02-13T02:18:37.520Z,93.28
2018-02-13T02:21:05.892Z,93.21
2018-02-13T02:23:34.229Z,93.03
2018-02-13T02:26:02.577Z,92.89
2018-02-13T02:28:30.961Z,92.70
2018-02-13T02:30:59.314Z,92.65
2018-02-13T02:33:27.645Z,92.65
2018-02-13T02:35:56.102Z,92.73
2018-02-13T02:38:24.429Z,92.73
2018-02-13T02:40:52.781Z,92.68
2018-02-13T02:43:21.125Z,92.57
2018-02-13T02:45:49.474Z,92.39
2018-02-13T02:48:17.803Z,92.22
2018-02-13T02:50:46.258Z,92.06
2018-02-13T02:53:14.633Z,91.94
2018-02-13T02:55:42.981Z,91.71
2018-02-13T02:58:11.302Z,91.53
2018-02-13T03:00:39.657Z,91.28
2018-02-13T03:03:08.041Z,91.13
2018-02-13T03:05:36.390Z,91.00
2018-02-13T03:08:04.722Z,91.02
2018-02-13T03:10:33.170Z,91.01
2018-02-13T03:13:01.545Z,90.93
2018-02-13T03:15:29.902Z,91.00
2018-02-13T03:17:58.301Z,91.02
2018-02-13T03:20:26.657Z,90.92
2018-02-13T03:22:54.990Z,90.69
2018-02-13T03:25:23.341Z,90.94
2018-02-13T03:27:51.668Z,91.13
2018-02-13T03:30:20.089Z,91.34
2018-02-13T03:32:48.417Z,91.62
2018-02-13T03:35:16.837Z,91.88
2018-02-13T03:37:45.217Z,91.95
2018-02-13T03:40:13.597Z,92.12
2018-02-13T03:42:41.922Z,92.23
2018-02-13T03:45:10.273Z,92.20
2018-02-13T03:47:38.678Z,91.86
2018-02-13T03:50:07.105Z,91.77
2018-02-13T03:52:35.442Z,91.88
2018-02-13T03:55:03.861Z,92.05
2018-02-13T03:57:32.189Z,92.23
2018-02-13T04:00:00.622Z,92.18
2018-02-13T04:02:28.989Z,92.09
2018-02-13T04:04:57.320Z,91.88
2018-02-13T04:07:25.673Z,91.41
2018-02-13T04:09:54.021Z,91.10
2018-02-13T04:12:22.373Z,90.85
2018-02-13T04:14:50.774Z,90.67
2018-02-13T04:17:19.149Z,90.70
2018-02-13T04:19:47.478Z,90.51
2018-02-13T04:22:15.833Z,90.44
2018-02-13T04:24:44.160Z,90.38
2018-02-13T04:27:12.554Z,90.19
2018-02-13T04:29:40.913Z,90.11
2018-02-13T04:32:09.309Z,90.19
2018-02-13T04:34:37.690Z,90.26
2018-02-13T04:37:06.042Z,90.09
2018-02-13T04:39:34.441Z,90.07
2018-02-13T04:42:02.822Z,90.10
2018-02-13T04:44:31.197Z,90.29
2018-02-13T04:46:59.603Z,90.36
2018-02-13T04:49:27.957Z,90.22
2018-02-13T04:51:56.328Z,89.90
2018-02-13T04:54:24.664Z,89.76
2018-02-13T04:56:53.013Z,89.98
2018-02-13T04:59:21.361Z,90.18
2018-02-13T05:01:49.738Z,90.32
2018-02-13T05:04:18.117Z,90.21
2018-02-13T05:06:46.465Z,90.17
2018-02-13T05:09:14.872Z,90.14
2018-02-13T05:11:43.277Z,90.17
2018-02-13T05:14:11.610Z,90.03
2018-02-13T05:16:39.965Z,89.88
2018-02-13T05:19:08.381Z,89.85
2018-02-13T05:21:36.762Z,89.66
2018-02-13T05:24:05.141Z,89.58
2018-02-13T05:26:33.509Z,89.29
2018-02-13T05:29:01.905Z,89.28
2018-02-13T05:31:30.201Z,89.18
2018-02-13T05:33:58.550Z,88.97
2018-02-13T05:36:26.921Z,88.73
2018-02-13T05:38:55.252Z,88.64
2018-02-13T05:41:23.609Z,88.80
2018-02-13T05:43:51.937Z,89.10
2018-02-13T05:46:20.328Z,89.18
2018-02-13T05:48:48.710Z,89.02
2018-02-13T05:51:17.754Z,89.12
2018-02-13T05:53:46.082Z,89.11
2018-02-13T05:56:14.434Z,89.26
2018-02-13T05:58:42.829Z,89.24
2018-02-13T06:01:11.215Z,89.33
2018-02-13T06:03:39.564Z,89.29
2018-02-13T06:06:07.969Z,89.23
2018-02-13T06:08:36.324Z,89.18
2018-02-13T06:11:04.725Z,89.20
2018-02-13T06:13:33.101Z,89.23
2018-02-13T06:16:01.486Z,89.28
2018-02-13T06:18:29.842Z,89.27
2018-02-13T06:20:58.274Z,89.09
2018-02-13T06:23:26.613Z,88.97
2018-02-13T06:25:54.989Z,88.89
2018-02-13T06:28:23.446Z,88.72
2018-02-13T06:30:51.850Z,88.70
2018-02-13T06:33:20.201Z,88.41
2018-02-13T06:35:48.529Z,88.19
2018-02-13T06:38:16.976Z,88.16
2018-02-13T06:40:45.310Z,88.06
2018-02-13T06:43:13.662Z,87.72
2018-02-13T06:45:41.984Z,87.53
2018-02-13T06:48:10.334Z,87.04
2018-02-13T06:50:38.674Z,86.70
2018-02-13T06:53:07.013Z,86.61
2018-02-13T06:55:35.342Z,86.34
2018-02-13T06:58:03.685Z,86.34
2018-02-13T07:00:32.014Z,86.24
2018-02-13T07:03:00.358Z,86.09
2018-02-13T07:05:28.704Z,86.11
2018-02-13T07:07:57.020Z,85.71
2018-02-13T07:10:25.340Z,85.73
2018-02-13T07:12:53.689Z,85.75
2018-02-13T07:15:22.010Z,85.67
2018-02-13T07:17:50.349Z,85.57
2018-02-13T07:20:18.665Z,85.29
2018-02-13T07:22:47.010Z,85.12
2018-02-13T07:25:19.061Z,85.21
2018-02-13T07:27:47.618Z,84.91
2018-02-13T07:30:21.456Z,84.99
2018-02-13T07:33:00.885Z,85.21
2018-02-13T07:35:36.236Z,84.92
2018-02-13T07:38:04.565Z,84.83
2018-02-13T07:40:32.913Z,85.14
2018-02-13T07:43:01.261Z,85.36
2018-02-13T07:45:29.581Z,85.35
2018-02-13T07:47:57.924Z,85.00
2018-02-13T07:50:26.244Z,84.86
2018-02-13T07:52:54.585Z,84.71
2018-02-13T07:55:22.914Z,84.81
2018-02-13T07:57:51.258Z,84.90
2018-02-13T08:00:19.577Z,84.71
2018-02-13T08:02:47.918Z,84.87
2018-02-13T08:05:16.245Z,85.19
2018-02-13T08:07:44.657Z,84.94
2018-02-13T08:10:12.937Z,84.95
2018-02-13T08:12:41.302Z,85.02
2018-02-13T08:15:09.636Z,85.07
2018-02-13T08:17:38.464Z,85.21
2018-02-13T08:20:06.773Z,84.97
2018-02-13T08:22:35.127Z,84.52
2018-02-13T08:25:03.449Z,84.55
2018-02-13T08:27:31.769Z,84.30
2018-02-13T08:30:00.119Z,84.11
2018-02-13T08:32:28.434Z,83.99
2018-02-13T08:34:56.821Z,83.75
2018-02-13T08:37:25.229Z,83.76
2018-02-13T08:39:53.573Z,83.70
2018-02-13T08:42:21.893Z,83.59
2018-02-13T08:44:50.237Z,83.55
2018-02-13T08:47:18.566Z,83.49
2018-02-13T08:49:46.905Z,83.30
2018-02-13T08:52:15.225Z,89.55
2018-02-13T08:54:43.588Z,81.63
2018-02-13T08:57:11.893Z,81.28
2018-02-13T08:59:40.237Z,80.83
2018-02-13T09:02:08.558Z,81.60
2018-02-13T09:04:36.904Z,81.95
2018-02-13T09:07:05.226Z,81.65
2018-02-13T09:09:33.565Z,81.27
2018-02-13T09:12:01.889Z,81.14
2018-02-13T09:14:30.249Z,80.67
2018-02-13T09:16:58.574Z,80.77
2018-02-13T09:19:26.998Z,80.32
2018-02-13T09:21:55.325Z,80.16
2018-02-13T09:24:23.755Z,79.81
2018-02-13T09:26:52.083Z,79.73
2018-02-13T09:29:20.421Z,79.60
2018-02-13T09:31:49.126Z,79.35
2018-02-13T09:34:17.477Z,79.27
2018-02-13T09:36:45.797Z,79.05
2018-02-13T09:39:14.145Z,78.97
2018-02-13T09:41:42.470Z,78.92
2018-02-13T09:44:10.813Z,79.05
2018-02-13T09:46:39.146Z,78.36
2018-02-13T09:49:07.489Z,77.88
2018-02-13T09:51:35.902Z,78.79
2018-02-13T09:54:04.241Z,78.57
2018-02-13T09:56:32.566Z,77.79
2018-02-13T09:59:00.936Z,76.66
2018-02-13T10:01:29.309Z,77.07
2018-02-13T10:03:57.685Z,77.17
2018-02-13T10:06:26.010Z,77.24
2018-02-13T10:08:54.446Z,77.73
2018-02-13T10:11:23.533Z,77.79
2018-02-13T10:13:51.877Z,78.75
2018-02-13T10:16:20.201Z,78.08
2018-02-13T10:18:48.665Z,77.42
2018-02-13T10:21:17.041Z,77.31
2018-02-13T10:23:45.381Z,77.98
2018-02-13T10:26:13.709Z,77.96
2018-02-13T10:28:42.053Z,77.87
2018-02-13T10:31:10.373Z,77.92
2018-02-13T10:33:38.721Z,76.92
2018-02-13T10:36:08.005Z,77.21
2018-02-13T10:38:36.349Z,76.40
2018-02-13T10:41:05.481Z,75.68
2018-02-13T10:43:33.811Z,75.30
2018-02-13T10:46:03.146Z,75.57
2018-02-13T10:48:31.465Z,76.40
2018-02-13T10:50:59.823Z,75.38
2018-02-13T10:53:28.130Z,76.91
2018-02-13T10:55:56.528Z,77.00
2018-02-13T10:58:24.825Z,76.41
2018-02-13T11:00:58.717Z,76.31
2018-02-13T11:03:27.038Z,76.40
2018-02-13T11:05:55.382Z,76.02
2018-02-13T11:08:23.701Z,75.17
2018-02-13T11:10:52.047Z,76.16
2018-02-13T11:13:20.386Z,75.77
2018-02-13T11:15:49.725Z,75.23
2018-02-13T11:18:18.041Z,74.84
2018-02-13T11:20:46.385Z,74.74
2018-02-13T11:23:14.710Z,74.71
2018-02-13T11:25:43.090Z,75.42
2018-02-13T11:28:11.376Z,73.92
2018-02-13T11:30:39.721Z,73.21
2018-02-13T11:33:08.041Z,73.87
2018-02-13T11:35:36.381Z,73.08
2018-02-13T11:38:04.701Z,73.19
2018-02-13T11:40:33.046Z,72.52
2018-02-13T11:43:01.370Z,72.32
2018-02-13T11:45:29.709Z,71.32
2018-02-13T11:47:58.030Z,71.72
2018-02-13T11:50:26.374Z,71.41
2018-02-13T11:52:54.693Z,72.13
2018-02-13T11:55:23.037Z,70.32
2018-02-13T11:57:51.361Z,70.98
2018-02-13T12:00:19.706Z,70.51
2018-02-13T12:02:48.027Z,70.61
2018-02-13T12:05:16.375Z,70.82
2018-02-13T12:07:44.741Z,70.44
2018-02-13T12:10:13.114Z,69.63
2018-02-13T12:12:41.433Z,69.35
2018-02-13T12:15:09.783Z,69.53
2018-02-13T12:17:38.146Z,69.24
2018-02-13T12:20:06.485Z,69.69
2018-02-13T12:22:34.985Z,69.40
2018-02-13T12:25:03.312Z,68.73
2018-02-13T12:27:31.706Z,69.19
2018-02-13T12:30:00.028Z,69.96
2018-02-13T12:32:28.347Z,69.14
2018-02-13T12:34:56.697Z,68.10
2018-02-13T12:37:25.018Z,67.16
2018-02-13T12:39:53.336Z,67.72
2018-02-13T12:42:21.677Z,67.90
2018-02-13T12:44:49.993Z,67.50
2018-02-13T12:47:18.341Z,67.46
2018-02-13T12:49:46.657Z,67.02
2018-02-13T12:52:14.999Z,67.92
2018-02-13T12:54:43.321Z,68.10
2018-02-13T12:57:12.665Z,67.96
2018-02-13T12:59:40.994Z,68.11
2018-02-13T13:02:09.346Z,66.16
2018-02-13T13:04:37.670Z,66.67
2018-02-13T13:07:06.027Z,66.91
2018-02-13T13:09:34.385Z,66.38
2018-02-13T13:12:02.738Z,67.73
2018-02-13T13:14:31.053Z,68.08
2018-02-13T13:16:59.399Z,67.86
2018-02-13T13:19:27.726Z,66.05
2018-02-13T13:21:56.066Z,66.93
2018-02-13T13:24:24.385Z,66.46
2018-02-13T13:26:52.740Z,67.83
2018-02-13T13:29:21.082Z,67.41
2018-02-13T13:31:49.439Z,68.11
2018-02-13T13:34:17.761Z,68.94
2018-02-13T13:36:46.105Z,67.21
2018-02-13T13:39:14.435Z,66.52
2018-02-13T13:41:42.770Z,67.93
2018-02-13T13:44:11.106Z,68.35
2018-02-13T13:46:39.458Z,66.99
2018-02-13T13:49:08.557Z,67.23
2018-02-13T13:51:37.304Z,68.19
2018-02-13T13:54:05.627Z,66.92
2018-02-13T13:56:33.979Z,66.76
2018-02-13T13:59:02.303Z,68.25
2018-02-13T14:01:30.653Z,66.12
2018-02-13T14:03:58.978Z,65.45
2018-02-13T14:06:27.310Z,66.67
2018-02-13T14:08:55.669Z,66.27
2018-02-13T14:11:23.989Z,66.25
2018-02-13T14:13:52.334Z,66.09
2018-02-13T14:16:20.657Z,64.96
2018-02-13T14:18:49.022Z,66.18
2018-02-13T14:21:17.426Z,65.70
2018-02-13T14:23:45.794Z,65.09
2018-02-13T14:26:14.129Z,64.15
2018-02-13T14:28:42.658Z,64.92
2018-02-13T14:31:11.036Z,64.49
2018-02-13T14:33:39.531Z,64.17
2018-02-13T14:36:07.895Z,64.53
2018-02-13T14:38:36.285Z,64.66
2018-02-13T14:41:04.607Z,64.80
2018-02-13T14:43:32.950Z,64.97
2018-02-13T14:46:01.343Z,63.21
2018-02-13T14:48:29.685Z,64.04
2018-02-13T14:50:58.098Z,63.90
2018-02-13T14:53:26.482Z,63.93
2018-02-13T14:55:54.966Z,63.93
2018-02-13T14:58:23.321Z,64.13
2018-02-13T15:00:51.688Z,63.79
2018-02-13T15:03:20.027Z,64.77
2018-02-13T15:05:49.311Z,64.59
2018-02-13T15:08:17.709Z,64.04
2018-02-13T15:10:45.972Z,64.40
2018-02-13T15:13:14.305Z,64.39
2018-02-13T15:15:42.633Z,64.03
2018-02-13T15:18:12.954Z,64.47
2018-02-13T15:20:41.280Z,65.54
2018-02-13T15:23:09.617Z,66.39
2018-02-13T15:25:38.031Z,64.82
2018-02-13T15:28:06.381Z,64.58
2018-02-13T15:30:35.342Z,64.16
2018-02-13T15:33:03.679Z,64.35
2018-02-13T15:35:32.001Z,65.29
2018-02-13T15:38:00.354Z,64.36
2018-02-13T15:40:28.671Z,63.89
2018-02-13T15:42:57.086Z,64.59
2018-02-13T15:45:25.416Z,64.90
2018-02-13T15:47:53.763Z,64.36
2018-02-13T15:50:23.037Z,64.77
2018-02-13T15:52:51.405Z,64.82
2018-02-13T15:55:19.749Z,64.82
2018-02-13T15:57:48.113Z,64.56
2018-02-13T16:00:16.422Z,64.05
2018-02-13T16:02:45.147Z,64.46
2018-02-13T16:05:15.957Z,64.49
2018-02-13T16:07:44.313Z,64.51
2018-02-13T16:10:12.648Z,64.31
2018-02-13T16:12:41.049Z,64.57
2018-02-13T16:15:09.602Z,65.58
2018-02-13T16:17:37.929Z,64.61
2018-02-13T16:20:06.281Z,64.59
2018-02-13T16:22:34.605Z,64.09
2018-02-13T16:25:02.972Z,64.28
2018-02-13T16:27:31.308Z,63.69
2018-02-13T16:29:59.654Z,64.54
2018-02-13T16:32:27.981Z,63.71
2018-02-13T16:34:56.350Z,63.82
2018-02-13T16:37:24.673Z,64.87
2018-02-13T16:39:53.116Z,64.67
2018-02-13T16:42:21.446Z,65.34
2018-02-13T16:44:50.014Z,63.86
2018-02-13T16:47:19.413Z,64.22
2018-02-13T16:49:48.098Z,63.96
2018-02-13T16:52:16.977Z,63.92
2018-02-13T16:54:45.350Z,64.24
2018-02-13T16:57:13.734Z,63.87
2018-02-13T16:59:42.162Z,64.06
2018-02-13T17:02:10.508Z,64.49
2018-02-13T17:04:39.033Z,64.08
2018-02-13T17:07:07.534Z,64.45
2018-02-13T17:09:36.761Z,64.50
2018-02-13T17:12:05.090Z,64.67
2018-02-13T17:14:33.453Z,64.20
2018-02-13T17:17:01.802Z,65.12
2018-02-13T17:19:30.249Z,66.92
2018-02-13T17:21:58.710Z,64.99
2018-02-13T17:24:27.081Z,64.38
2018-02-13T17:26:55.436Z,64.71
2018-02-13T17:29:23.757Z,65.03
2018-02-13T17:31:52.277Z,65.49
2018-02-13T17:34:20.627Z,65.15
2018-02-13T17:36:49.917Z,65.34
2018-02-13T17:39:18.262Z,76.62
2018-02-13T17:41:46.589Z,82.10
2018-02-13T17:44:14.937Z,69.35
2018-02-13T17:46:43.322Z,66.10
2018-02-13T17:49:11.719Z,65.15
2018-02-13T17:51:41.990Z,63.96
2018-02-13T17:54:11.757Z,63.92
2018-02-13T17:56:40.086Z,64.78
2018-02-13T17:59:08.476Z,64.72
2018-02-13T18:01:36.996Z,64.53
2018-02-13T18:04:05.341Z,64.96
2018-02-13T18:06:33.678Z,65.14
2018-02-13T18:09:02.033Z,73.35
2018-02-13T18:11:30.389Z,65.48
2018-02-13T18:13:58.729Z,65.25
2018-02-13T18:16:27.059Z,65.42
2018-02-13T18:18:55.421Z,65.97
2018-02-13T18:21:23.752Z,66.25
2018-02-13T18:23:52.081Z,66.92
2018-02-13T18:26:20.436Z,66.82
2018-02-13T18:28:48.766Z,67.10
2018-02-13T18:31:17.197Z,67.36
2018-02-13T18:33:46.298Z,67.22
2018-02-13T18:36:14.650Z,68.10
2018-02-13T18:38:42.978Z,68.75
2018-02-13T18:41:11.425Z,67.95
2018-02-13T18:43:39.800Z,68.24
2018-02-13T18:46:08.149Z,68.04
2018-02-13T18:48:36.562Z,68.04
2018-02-13T18:51:04.907Z,68.69
2018-02-13T18:53:33.229Z,68.46
2018-02-13T18:56:01.587Z,69.17
2018-02-13T18:58:29.966Z,68.88
2018-02-13T19:00:58.318Z,68.76
2018-02-13T19:03:26.645Z,69.21
2018-02-13T19:05:55.892Z,69.46
2018-02-13T19:08:24.222Z,69.26
2018-02-13T19:10:52.673Z,69.08
2018-02-13T19:13:20.995Z,69.35
2018-02-13T19:15:50.324Z,69.33
2018-02-13T19:18:18.658Z,70.17
2018-02-13T19:20:47.017Z,69.90
2018-02-13T19:23:15.362Z,69.13
2018-02-13T19:25:43.733Z,69.16
2018-02-13T19:28:12.289Z,68.97
2018-02-13T19:30:40.620Z,68.69
2018-02-13T19:33:08.998Z,68.62
2018-02-13T19:35:37.365Z,69.06
2018-02-13T19:38:05.702Z,69.45
2018-02-13T19:40:34.070Z,69.66
2018-02-13T19:43:02.394Z,69.77
2018-02-13T19:45:30.748Z,69.74
2018-02-13T19:47:59.078Z,69.63
2018-02-13T19:50:27.427Z,69.96
2018-02-13T19:52:55.759Z,70.18
2018-02-13T19:55:24.190Z,69.95
2018-02-13T19:57:52.567Z,69.74
2018-02-13T20:00:20.918Z,69.84
2018-02-13T20:02:49.266Z,70.11
2018-02-13T20:05:17.701Z,70.24
2018-02-13T20:07:46.181Z,69.88
2018-02-13T20:10:14.549Z,70.21
2018-02-13T20:12:42.879Z,69.79
2018-02-13T20:15:11.243Z,70.02
2018-02-13T20:17:39.609Z,70.42
2018-02-13T20:20:07.949Z,70.31
2018-02-13T20:22:36.294Z,70.23
2018-02-13T20:25:04.642Z,70.57
2018-02-13T20:27:32.988Z,70.59
2018-02-13T20:30:01.317Z,70.36
2018-02-13T20:32:30.032Z,70.55
2018-02-13T20:34:58.358Z,70.62
2018-02-13T20:37:26.810Z,70.00
2018-02-13T20:39:55.126Z,70.21
2018-02-13T20:42:23.554Z,70.01
2018-02-13T20:44:51.886Z,70.19
2018-02-13T20:47:20.226Z,70.44
2018-02-13T20:49:48.546Z,70.78
2018-02-13T20:52:16.889Z,71.04
2018-02-13T20:54:45.213Z,70.75
2018-02-13T20:57:13.614Z,70.84
2018-02-13T20:59:41.957Z,70.96
2018-02-13T21:02:10.322Z,71.22
2018-02-13T21:04:38.691Z,71.38
2018-02-13T21:07:07.008Z,71.27
2018-02-13T21:09:35.403Z,71.27
2018-02-13T21:12:03.749Z,70.78
2018-02-13T21:14:32.074Z,70.54
2018-02-13T21:17:00.421Z,70.72
2018-02-13T21:19:28.761Z,70.18
2018-02-13T21:21:57.190Z,69.98
2018-02-13T21:24:25.558Z,69.65
2018-02-13T21:26:53.897Z,69.39
2018-02-13T21:29:22.221Z,72.05
2018-02-13T21:31:50.571Z,70.88
2018-02-13T21:34:18.894Z,70.02
2018-02-13T21:36:47.342Z,69.78
2018-02-13T21:39:15.661Z,69.67
2018-02-13T21:41:44.097Z,69.58
2018-02-13T21:44:12.428Z,69.40
2018-02-13T21:46:41.754Z,69.49
2018-02-13T21:49:10.154Z,69.36
2018-02-13T21:51:38.498Z,69.48
2018-02-13T21:54:06.909Z,68.92
2018-02-13T21:56:36.214Z,69.14
2018-02-13T21:59:04.582Z,69.25
2018-02-13T22:01:32.931Z,69.65
2018-02-13T22:04:01.620Z,74.57
2018-02-13T22:06:30.021Z,75.18
2018-02-13T22:08:58.347Z,68.63
2018-02-13T22:11:26.685Z,68.12
2018-02-13T22:13:55.053Z,67.59
2018-02-13T22:16:23.400Z,68.23
2018-02-13T22:18:51.805Z,67.97
2018-02-13T22:21:20.150Z,68.12
2018-02-13T22:23:48.553Z,67.84
2018-02-13T22:26:16.897Z,68.00
2018-02-13T22:28:45.217Z,68.61
2018-02-13T22:31:13.541Z,68.58
2018-02-13T22:33:41.965Z,68.50
2018-02-13T22:36:10.399Z,68.70
2018-02-13T22:38:38.726Z,68.80
2018-02-13T22:41:07.041Z,69.03
2018-02-13T22:43:35.390Z,68.95
2018-02-13T22:46:03.756Z,68.42
2018-02-13T22:48:32.129Z,68.42
2018-02-13T22:51:00.505Z,68.71
2018-02-13T22:53:28.841Z,68.44
2018-02-13T22:55:57.262Z,68.59
2018-02-13T22:58:25.609Z,68.82
2018-02-13T23:00:53.934Z,68.89
2018-02-13T23:03:22.341Z,69.25
2018-02-13T23:05:50.668Z,69.08
2018-02-13T23:08:19.009Z,69.34
2018-02-13T23:10:47.317Z,69.82
2018-02-13T23:13:15.658Z,69.79
2018-02-13T23:15:44.070Z,69.92
2018-02-13T23:18:12.453Z,70.10
2018-02-13T23:20:40.778Z,70.16
2018-02-13T23:23:09.115Z,70.20
2018-02-13T23:25:37.477Z,70.31
2018-02-13T23:28:05.822Z,70.50
2018-02-13T23:30:34.142Z,70.76
2018-02-13T23:33:02.510Z,71.19
2018-02-13T23:35:30.886Z,71.46
2018-02-13T23:37:59.232Z,71.87
2018-02-13T23:40:27.557Z,71.70
2018-02-13T23:42:55.896Z,71.87
2018-02-13T23:45:24.213Z,71.52
2018-02-13T23:47:52.565Z,71.29
2018-02-13T23:50:20.885Z,71.44
2018-02-13T23:52:49.313Z,71.34
2018-02-13T23:55:17.633Z,71.22
2018-02-13T23:57:45.973Z,71.22
